sensor_id;sensor_type;location;lat;lon;timestamp;P1;durP1;ratioP1;P2;durP2;ratioP2
52734;SDS011;38631;47.572;10.704;2023-07-13T00:00:23;1.48;;;0.90;;
52734;SDS011;38631;47.572;10.704;2023-07-13T00:02:48;2.42;;;1.25;;
52734;SDS011;38631;47.572;10.704;2023-07-13T00:05:13;2.40;;;1.13;;
52734;SDS011;38631;47.572;10.704;2023-07-13T00:07:39;2.38;;;0.85;;
52734;SDS011;38631;47.572;10.704;2023-07-13T00:10:04;1.17;;;0.73;;
52734;SDS011;38631;47.572;10.704;2023-07-13T00:12:32;1.20;;;0.82;;
52734;SDS011;38631;47.572;10.704;2023-07-13T00:15:01;1.75;;;0.90;;
52734;SDS011;38631;47.572;10.704;2023-07-13T00:17:28;1.30;;;0.70;;
52734;SDS011;38631;47.572;10.704;2023-07-13T00:19:54;3.53;;;1.10;;
52734;SDS011;38631;47.572;10.704;2023-07-13T00:22:21;1.80;;;0.80;;
52734;SDS011;38631;47.572;10.704;2023-07-13T00:24:46;1.35;;;0.95;;
52734;SDS011;38631;47.572;10.704;2023-07-13T00:27:12;1.15;;;0.95;;
52734;SDS011;38631;47.572;10.704;2023-07-13T00:29:38;2.88;;;1.00;;
52734;SDS011;38631;47.572;10.704;2023-07-13T00:32:04;1.08;;;0.85;;
52734;SDS011;38631;47.572;10.704;2023-07-13T00:34:30;1.88;;;1.00;;
52734;SDS011;38631;47.572;10.704;2023-07-13T00:36:56;1.60;;;1.00;;
52734;SDS011;38631;47.572;10.704;2023-07-13T00:39:22;2.15;;;0.90;;
52734;SDS011;38631;47.572;10.704;2023-07-13T00:41:47;1.88;;;1.08;;
52734;SDS011;38631;47.572;10.704;2023-07-13T00:44:13;2.00;;;0.82;;
52734;SDS011;38631;47.572;10.704;2023-07-13T00:46:40;1.77;;;0.90;;
52734;SDS011;38631;47.572;10.704;2023-07-13T00:49:06;1.30;;;0.70;;
52734;SDS011;38631;47.572;10.704;2023-07-13T00:51:36;1.45;;;0.90;;
52734;SDS011;38631;47.572;10.704;2023-07-13T00:54:06;1.30;;;0.80;;
52734;SDS011;38631;47.572;10.704;2023-07-13T00:56:38;2.15;;;1.23;;
52734;SDS011;38631;47.572;10.704;2023-07-13T00:59:06;1.92;;;0.90;;
52734;SDS011;38631;47.572;10.704;2023-07-13T01:01:35;3.15;;;0.93;;
52734;SDS011;38631;47.572;10.704;2023-07-13T01:04:01;2.60;;;1.30;;
52734;SDS011;38631;47.572;10.704;2023-07-13T01:06:27;1.70;;;0.90;;
52734;SDS011;38631;47.572;10.704;2023-07-13T01:08:53;3.03;;;0.90;;
52734;SDS011;38631;47.572;10.704;2023-07-13T01:11:20;1.27;;;1.00;;
52734;SDS011;38631;47.572;10.704;2023-07-13T01:13:47;1.25;;;0.60;;
52734;SDS011;38631;47.572;10.704;2023-07-13T01:16:21;1.42;;;1.00;;
52734;SDS011;38631;47.572;10.704;2023-07-13T01:18:50;1.35;;;1.00;;
52734;SDS011;38631;47.572;10.704;2023-07-13T01:21:15;1.67;;;0.98;;
52734;SDS011;38631;47.572;10.704;2023-07-13T01:23:41;2.22;;;0.90;;
52734;SDS011;38631;47.572;10.704;2023-07-13T01:26:09;1.45;;;1.00;;
52734;SDS011;38631;47.572;10.704;2023-07-13T01:28:34;1.10;;;0.60;;
52734;SDS011;38631;47.572;10.704;2023-07-13T01:31:02;1.50;;;1.02;;
52734;SDS011;38631;47.572;10.704;2023-07-13T01:33:28;2.83;;;0.90;;
52734;SDS011;38631;47.572;10.704;2023-07-13T01:35:53;1.10;;;0.80;;
52734;SDS011;38631;47.572;10.704;2023-07-13T01:38:20;2.33;;;1.05;;
52734;SDS011;38631;47.572;10.704;2023-07-13T01:40:47;2.15;;;0.77;;
52734;SDS011;38631;47.572;10.704;2023-07-13T01:43:12;1.48;;;1.05;;
52734;SDS011;38631;47.572;10.704;2023-07-13T01:45:38;0.90;;;0.80;;
52734;SDS011;38631;47.572;10.704;2023-07-13T01:48:04;5.03;;;1.45;;
52734;SDS011;38631;47.572;10.704;2023-07-13T01:50:31;1.00;;;0.70;;
52734;SDS011;38631;47.572;10.704;2023-07-13T01:52:57;1.15;;;1.00;;
52734;SDS011;38631;47.572;10.704;2023-07-13T01:55:23;1.08;;;0.57;;
52734;SDS011;38631;47.572;10.704;2023-07-13T01:57:48;1.33;;;0.77;;
52734;SDS011;38631;47.572;10.704;2023-07-13T02:00:14;1.30;;;0.90;;
52734;SDS011;38631;47.572;10.704;2023-07-13T02:02:40;2.08;;;0.88;;
52734;SDS011;38631;47.572;10.704;2023-07-13T02:05:06;2.45;;;1.20;;
52734;SDS011;38631;47.572;10.704;2023-07-13T02:07:32;0.90;;;0.63;;
52734;SDS011;38631;47.572;10.704;2023-07-13T02:09:57;1.67;;;0.77;;
52734;SDS011;38631;47.572;10.704;2023-07-13T02:12:23;1.80;;;1.00;;
52734;SDS011;38631;47.572;10.704;2023-07-13T02:14:48;1.85;;;0.98;;
52734;SDS011;38631;47.572;10.704;2023-07-13T02:17:13;2.72;;;1.35;;
52734;SDS011;38631;47.572;10.704;2023-07-13T02:19:39;1.33;;;0.98;;
52734;SDS011;38631;47.572;10.704;2023-07-13T02:22:04;1.70;;;1.05;;
52734;SDS011;38631;47.572;10.704;2023-07-13T02:24:29;1.98;;;1.00;;
52734;SDS011;38631;47.572;10.704;2023-07-13T02:26:55;1.52;;;0.90;;
52734;SDS011;38631;47.572;10.704;2023-07-13T02:29:20;2.10;;;0.90;;
52734;SDS011;38631;47.572;10.704;2023-07-13T02:31:45;1.38;;;1.00;;
52734;SDS011;38631;47.572;10.704;2023-07-13T02:34:11;1.55;;;0.88;;
52734;SDS011;38631;47.572;10.704;2023-07-13T02:36:36;1.77;;;0.93;;
52734;SDS011;38631;47.572;10.704;2023-07-13T02:39:02;2.17;;;1.10;;
52734;SDS011;38631;47.572;10.704;2023-07-13T02:41:29;2.05;;;1.20;;
52734;SDS011;38631;47.572;10.704;2023-07-13T02:43:55;2.80;;;1.00;;
52734;SDS011;38631;47.572;10.704;2023-07-13T02:46:28;1.80;;;1.27;;
52734;SDS011;38631;47.572;10.704;2023-07-13T02:48:53;1.38;;;1.00;;
52734;SDS011;38631;47.572;10.704;2023-07-13T02:51:19;2.33;;;1.13;;
52734;SDS011;38631;47.572;10.704;2023-07-13T02:53:44;2.38;;;1.40;;
52734;SDS011;38631;47.572;10.704;2023-07-13T02:56:10;1.98;;;1.30;;
52734;SDS011;38631;47.572;10.704;2023-07-13T02:58:35;1.73;;;1.05;;
52734;SDS011;38631;47.572;10.704;2023-07-13T03:01:03;2.05;;;1.27;;
52734;SDS011;38631;47.572;10.704;2023-07-13T03:03:32;1.83;;;1.27;;
52734;SDS011;38631;47.572;10.704;2023-07-13T03:06:01;2.13;;;1.45;;
52734;SDS011;38631;47.572;10.704;2023-07-13T03:08:28;2.08;;;1.48;;
52734;SDS011;38631;47.572;10.704;2023-07-13T03:11:00;2.00;;;1.30;;
52734;SDS011;38631;47.572;10.704;2023-07-13T03:13:27;3.92;;;1.65;;
52734;SDS011;38631;47.572;10.704;2023-07-13T03:15:52;2.17;;;1.73;;
52734;SDS011;38631;47.572;10.704;2023-07-13T03:18:18;2.92;;;1.58;;
52734;SDS011;38631;47.572;10.704;2023-07-13T03:20:43;4.47;;;1.50;;
52734;SDS011;38631;47.572;10.704;2023-07-13T03:23:09;3.22;;;1.90;;
52734;SDS011;38631;47.572;10.704;2023-07-13T03:25:34;3.67;;;1.38;;
52734;SDS011;38631;47.572;10.704;2023-07-13T03:27:59;1.77;;;1.40;;
52734;SDS011;38631;47.572;10.704;2023-07-13T03:30:25;4.93;;;1.70;;
52734;SDS011;38631;47.572;10.704;2023-07-13T03:32:50;3.58;;;1.55;;
52734;SDS011;38631;47.572;10.704;2023-07-13T03:35:16;2.30;;;1.58;;
52734;SDS011;38631;47.572;10.704;2023-07-13T03:37:41;2.25;;;1.67;;
52734;SDS011;38631;47.572;10.704;2023-07-13T03:40:07;2.00;;;1.42;;
52734;SDS011;38631;47.572;10.704;2023-07-13T03:42:34;2.10;;;1.40;;
52734;SDS011;38631;47.572;10.704;2023-07-13T03:44:59;2.20;;;1.20;;
52734;SDS011;38631;47.572;10.704;2023-07-13T03:47:25;2.50;;;2.00;;
52734;SDS011;38631;47.572;10.704;2023-07-13T03:49:50;2.50;;;2.05;;
52734;SDS011;38631;47.572;10.704;2023-07-13T03:52:15;2.35;;;1.50;;
52734;SDS011;38631;47.572;10.704;2023-07-13T03:54:41;3.65;;;1.35;;
52734;SDS011;38631;47.572;10.704;2023-07-13T03:57:08;2.92;;;1.40;;
52734;SDS011;38631;47.572;10.704;2023-07-13T03:59:34;2.08;;;1.88;;
52734;SDS011;38631;47.572;10.704;2023-07-13T04:02:00;2.42;;;1.55;;
52734;SDS011;38631;47.572;10.704;2023-07-13T04:04:26;3.70;;;1.65;;
52734;SDS011;38631;47.572;10.704;2023-07-13T04:06:51;2.60;;;1.63;;
52734;SDS011;38631;47.572;10.704;2023-07-13T04:09:18;2.50;;;1.63;;
52734;SDS011;38631;47.572;10.704;2023-07-13T04:11:43;2.47;;;1.40;;
52734;SDS011;38631;47.572;10.704;2023-07-13T04:14:09;3.00;;;1.60;;
52734;SDS011;38631;47.572;10.704;2023-07-13T04:16:34;2.28;;;1.40;;
52734;SDS011;38631;47.572;10.704;2023-07-13T04:19:00;1.88;;;1.30;;
52734;SDS011;38631;47.572;10.704;2023-07-13T04:21:26;2.28;;;1.65;;
52734;SDS011;38631;47.572;10.704;2023-07-13T04:23:52;3.38;;;1.25;;
52734;SDS011;38631;47.572;10.704;2023-07-13T04:26:18;2.75;;;1.30;;
52734;SDS011;38631;47.572;10.704;2023-07-13T04:28:45;3.58;;;1.60;;
52734;SDS011;38631;47.572;10.704;2023-07-13T04:31:12;3.38;;;1.52;;
52734;SDS011;38631;47.572;10.704;2023-07-13T04:33:37;2.75;;;1.85;;
52734;SDS011;38631;47.572;10.704;2023-07-13T04:36:02;2.67;;;1.80;;
52734;SDS011;38631;47.572;10.704;2023-07-13T04:38:30;3.28;;;1.50;;
52734;SDS011;38631;47.572;10.704;2023-07-13T04:40:57;2.90;;;1.80;;
52734;SDS011;38631;47.572;10.704;2023-07-13T04:43:27;6.32;;;2.08;;
52734;SDS011;38631;47.572;10.704;2023-07-13T04:45:53;2.75;;;2.10;;
52734;SDS011;38631;47.572;10.704;2023-07-13T04:48:19;2.05;;;1.40;;
52734;SDS011;38631;47.572;10.704;2023-07-13T04:50:45;2.92;;;1.98;;
52734;SDS011;38631;47.572;10.704;2023-07-13T04:53:11;1.95;;;1.40;;
52734;SDS011;38631;47.572;10.704;2023-07-13T04:55:37;3.95;;;2.10;;
52734;SDS011;38631;47.572;10.704;2023-07-13T04:58:03;1.92;;;1.65;;
52734;SDS011;38631;47.572;10.704;2023-07-13T05:00:29;3.17;;;1.83;;
52734;SDS011;38631;47.572;10.704;2023-07-13T05:02:55;2.75;;;2.17;;
52734;SDS011;38631;47.572;10.704;2023-07-13T05:05:22;2.33;;;1.80;;
52734;SDS011;38631;47.572;10.704;2023-07-13T05:07:49;3.63;;;1.85;;
52734;SDS011;38631;47.572;10.704;2023-07-13T05:10:14;2.40;;;1.63;;
52734;SDS011;38631;47.572;10.704;2023-07-13T05:12:40;4.72;;;2.00;;
52734;SDS011;38631;47.572;10.704;2023-07-13T05:15:06;2.75;;;1.65;;
52734;SDS011;38631;47.572;10.704;2023-07-13T05:17:32;5.25;;;2.08;;
52734;SDS011;38631;47.572;10.704;2023-07-13T05:19:57;3.13;;;1.90;;
52734;SDS011;38631;47.572;10.704;2023-07-13T05:22:22;3.45;;;1.70;;
52734;SDS011;38631;47.572;10.704;2023-07-13T05:24:48;2.88;;;1.75;;
52734;SDS011;38631;47.572;10.704;2023-07-13T05:27:13;2.10;;;1.80;;
52734;SDS011;38631;47.572;10.704;2023-07-13T05:29:39;3.78;;;1.92;;
52734;SDS011;38631;47.572;10.704;2023-07-13T05:32:04;2.20;;;1.48;;
52734;SDS011;38631;47.572;10.704;2023-07-13T05:34:30;2.58;;;1.80;;
52734;SDS011;38631;47.572;10.704;2023-07-13T05:36:55;4.28;;;2.00;;
52734;SDS011;38631;47.572;10.704;2023-07-13T05:39:21;3.75;;;1.77;;
52734;SDS011;38631;47.572;10.704;2023-07-13T05:41:46;2.50;;;1.77;;
52734;SDS011;38631;47.572;10.704;2023-07-13T05:44:12;5.35;;;3.90;;
52734;SDS011;38631;47.572;10.704;2023-07-13T05:46:37;4.95;;;3.08;;
52734;SDS011;38631;47.572;10.704;2023-07-13T05:49:02;2.90;;;1.98;;
52734;SDS011;38631;47.572;10.704;2023-07-13T05:51:28;3.00;;;2.00;;
52734;SDS011;38631;47.572;10.704;2023-07-13T05:53:54;2.25;;;1.63;;
52734;SDS011;38631;47.572;10.704;2023-07-13T05:56:19;2.45;;;1.90;;
52734;SDS011;38631;47.572;10.704;2023-07-13T05:58:45;3.45;;;1.77;;
52734;SDS011;38631;47.572;10.704;2023-07-13T06:01:11;4.40;;;1.95;;
52734;SDS011;38631;47.572;10.704;2023-07-13T06:03:38;2.33;;;1.60;;
52734;SDS011;38631;47.572;10.704;2023-07-13T06:06:07;2.35;;;1.67;;
52734;SDS011;38631;47.572;10.704;2023-07-13T06:08:34;3.75;;;2.38;;
52734;SDS011;38631;47.572;10.704;2023-07-13T06:11:04;3.33;;;2.45;;
52734;SDS011;38631;47.572;10.704;2023-07-13T06:13:37;4.03;;;2.20;;
52734;SDS011;38631;47.572;10.704;2023-07-13T06:16:02;3.97;;;2.40;;
52734;SDS011;38631;47.572;10.704;2023-07-13T06:18:31;3.35;;;2.53;;
52734;SDS011;38631;47.572;10.704;2023-07-13T06:21:05;2.95;;;2.40;;
52734;SDS011;38631;47.572;10.704;2023-07-13T06:23:34;3.88;;;2.35;;
52734;SDS011;38631;47.572;10.704;2023-07-13T06:26:00;3.08;;;2.42;;
52734;SDS011;38631;47.572;10.704;2023-07-13T06:28:26;3.65;;;2.30;;
52734;SDS011;38631;47.572;10.704;2023-07-13T06:30:51;3.25;;;2.05;;
52734;SDS011;38631;47.572;10.704;2023-07-13T06:33:16;4.00;;;2.15;;
52734;SDS011;38631;47.572;10.704;2023-07-13T06:35:42;2.80;;;2.13;;
52734;SDS011;38631;47.572;10.704;2023-07-13T06:38:07;4.35;;;2.33;;
52734;SDS011;38631;47.572;10.704;2023-07-13T06:40:33;3.38;;;2.15;;
52734;SDS011;38631;47.572;10.704;2023-07-13T06:42:58;3.85;;;1.60;;
52734;SDS011;38631;47.572;10.704;2023-07-13T06:45:24;4.00;;;1.80;;
52734;SDS011;38631;47.572;10.704;2023-07-13T06:47:49;3.55;;;1.80;;
52734;SDS011;38631;47.572;10.704;2023-07-13T06:50:15;2.30;;;1.63;;
52734;SDS011;38631;47.572;10.704;2023-07-13T06:52:40;4.45;;;1.90;;
52734;SDS011;38631;47.572;10.704;2023-07-13T06:55:06;2.63;;;1.80;;
52734;SDS011;38631;47.572;10.704;2023-07-13T06:57:31;3.10;;;1.88;;
52734;SDS011;38631;47.572;10.704;2023-07-13T06:59:56;2.83;;;1.60;;
52734;SDS011;38631;47.572;10.704;2023-07-13T07:02:22;2.60;;;1.63;;
52734;SDS011;38631;47.572;10.704;2023-07-13T07:04:47;3.53;;;1.55;;
52734;SDS011;38631;47.572;10.704;2023-07-13T07:07:13;3.03;;;1.70;;
52734;SDS011;38631;47.572;10.704;2023-07-13T07:09:38;2.40;;;1.60;;
52734;SDS011;38631;47.572;10.704;2023-07-13T07:12:04;3.13;;;1.77;;
52734;SDS011;38631;47.572;10.704;2023-07-13T07:14:29;3.03;;;1.50;;
52734;SDS011;38631;47.572;10.704;2023-07-13T07:16:55;2.33;;;1.52;;
52734;SDS011;38631;47.572;10.704;2023-07-13T07:19:20;2.85;;;1.77;;
52734;SDS011;38631;47.572;10.704;2023-07-13T07:21:46;2.88;;;1.73;;
52734;SDS011;38631;47.572;10.704;2023-07-13T07:24:11;2.78;;;1.80;;
52734;SDS011;38631;47.572;10.704;2023-07-13T07:26:37;3.10;;;1.90;;
52734;SDS011;38631;47.572;10.704;2023-07-13T07:29:02;3.42;;;2.13;;
52734;SDS011;38631;47.572;10.704;2023-07-13T07:31:28;4.82;;;1.90;;
52734;SDS011;38631;47.572;10.704;2023-07-13T07:33:53;2.33;;;1.92;;
52734;SDS011;38631;47.572;10.704;2023-07-13T07:36:19;4.18;;;2.00;;
52734;SDS011;38631;47.572;10.704;2023-07-13T07:38:44;3.03;;;2.20;;
52734;SDS011;38631;47.572;10.704;2023-07-13T07:41:09;3.40;;;2.33;;
52734;SDS011;38631;47.572;10.704;2023-07-13T07:43:35;2.40;;;1.75;;
52734;SDS011;38631;47.572;10.704;2023-07-13T07:46:01;2.03;;;1.55;;
52734;SDS011;38631;47.572;10.704;2023-07-13T07:48:27;3.95;;;1.90;;
52734;SDS011;38631;47.572;10.704;2023-07-13T07:50:52;2.70;;;1.77;;
52734;SDS011;38631;47.572;10.704;2023-07-13T07:53:18;2.08;;;1.73;;
52734;SDS011;38631;47.572;10.704;2023-07-13T07:55:43;4.07;;;2.22;;
52734;SDS011;38631;47.572;10.704;2023-07-13T07:58:10;5.00;;;2.13;;
52734;SDS011;38631;47.572;10.704;2023-07-13T08:00:35;3.13;;;2.00;;
52734;SDS011;38631;47.572;10.704;2023-07-13T08:03:01;3.88;;;2.38;;
52734;SDS011;38631;47.572;10.704;2023-07-13T08:05:27;3.10;;;2.20;;
52734;SDS011;38631;47.572;10.704;2023-07-13T08:07:53;3.90;;;2.20;;
52734;SDS011;38631;47.572;10.704;2023-07-13T08:10:18;5.80;;;2.17;;
52734;SDS011;38631;47.572;10.704;2023-07-13T08:12:44;3.17;;;2.35;;
52734;SDS011;38631;47.572;10.704;2023-07-13T08:15:10;3.17;;;1.92;;
52734;SDS011;38631;47.572;10.704;2023-07-13T08:17:37;5.82;;;2.20;;
52734;SDS011;38631;47.572;10.704;2023-07-13T08:20:03;6.07;;;2.50;;
52734;SDS011;38631;47.572;10.704;2023-07-13T08:22:29;4.68;;;2.35;;
52734;SDS011;38631;47.572;10.704;2023-07-13T08:24:55;3.30;;;1.92;;
52734;SDS011;38631;47.572;10.704;2023-07-13T08:27:21;5.65;;;2.53;;
52734;SDS011;38631;47.572;10.704;2023-07-13T08:29:49;5.22;;;2.22;;
52734;SDS011;38631;47.572;10.704;2023-07-13T08:32:15;3.50;;;2.40;;
52734;SDS011;38631;47.572;10.704;2023-07-13T08:34:40;2.40;;;2.10;;
52734;SDS011;38631;47.572;10.704;2023-07-13T08:37:06;3.00;;;2.13;;
52734;SDS011;38631;47.572;10.704;2023-07-13T08:39:32;3.72;;;2.35;;
52734;SDS011;38631;47.572;10.704;2023-07-13T08:42:00;4.63;;;2.22;;
52734;SDS011;38631;47.572;10.704;2023-07-13T08:44:50;3.20;;;2.08;;
52734;SDS011;38631;47.572;10.704;2023-07-13T08:47:30;3.55;;;2.00;;
52734;SDS011;38631;47.572;10.704;2023-07-13T08:50:00;2.85;;;1.90;;
52734;SDS011;38631;47.572;10.704;2023-07-13T08:52:34;3.58;;;2.13;;
52734;SDS011;38631;47.572;10.704;2023-07-13T08:55:05;2.92;;;1.90;;
52734;SDS011;38631;47.572;10.704;2023-07-13T08:57:39;4.05;;;2.80;;
52734;SDS011;38631;47.572;10.704;2023-07-13T09:00:10;4.47;;;2.00;;
52734;SDS011;38631;47.572;10.704;2023-07-13T09:05:33;3.70;;;2.58;;
52734;SDS011;38631;47.572;10.704;2023-07-13T09:10:45;4.53;;;2.78;;
52734;SDS011;38631;47.572;10.704;2023-07-13T09:16:04;3.05;;;2.10;;
52734;SDS011;38631;47.572;10.704;2023-07-13T09:18:41;4.60;;;1.75;;
52734;SDS011;38631;47.572;10.704;2023-07-13T09:21:11;4.90;;;2.33;;
52734;SDS011;38631;47.572;10.704;2023-07-13T09:23:40;2.85;;;1.83;;
52734;SDS011;38631;47.572;10.704;2023-07-13T09:26:11;4.85;;;2.13;;
52734;SDS011;38631;47.572;10.704;2023-07-13T09:28:45;4.45;;;2.08;;
52734;SDS011;38631;47.572;10.704;2023-07-13T09:31:14;3.50;;;2.20;;
52734;SDS011;38631;47.572;10.704;2023-07-13T09:33:42;3.63;;;2.28;;
52734;SDS011;38631;47.572;10.704;2023-07-13T09:38:39;3.17;;;2.20;;
52734;SDS011;38631;47.572;10.704;2023-07-13T09:41:17;3.95;;;2.13;;
52734;SDS011;38631;47.572;10.704;2023-07-13T09:46:54;4.03;;;2.42;;
52734;SDS011;38631;47.572;10.704;2023-07-13T09:49:23;2.65;;;2.17;;
52734;SDS011;38631;47.572;10.704;2023-07-13T09:51:57;4.28;;;2.45;;
52734;SDS011;38631;47.572;10.704;2023-07-13T09:54:25;4.32;;;2.78;;
52734;SDS011;38631;47.572;10.704;2023-07-13T09:56:58;3.28;;;2.10;;
52734;SDS011;38631;47.572;10.704;2023-07-13T09:59:34;4.30;;;2.53;;
52734;SDS011;38631;47.572;10.704;2023-07-13T10:02:22;3.90;;;2.35;;
52734;SDS011;38631;47.572;10.704;2023-07-13T10:05:31;4.95;;;2.05;;
52734;SDS011;38631;47.572;10.704;2023-07-13T10:07:50;5.07;;;2.25;;
52734;SDS011;38631;47.572;10.704;2023-07-13T10:10:21;3.33;;;2.70;;
52734;SDS011;38631;47.572;10.704;2023-07-13T10:12:48;4.45;;;2.45;;
52734;SDS011;38631;47.572;10.704;2023-07-13T10:15:23;3.83;;;2.28;;
52734;SDS011;38631;47.572;10.704;2023-07-13T10:17:51;4.47;;;2.65;;
52734;SDS011;38631;47.572;10.704;2023-07-13T10:20:20;3.72;;;2.53;;
52734;SDS011;38631;47.572;10.704;2023-07-13T10:22:58;4.18;;;2.35;;
52734;SDS011;38631;47.572;10.704;2023-07-13T10:25:34;4.57;;;3.00;;
52734;SDS011;38631;47.572;10.704;2023-07-13T10:30:52;4.80;;;2.53;;
52734;SDS011;38631;47.572;10.704;2023-07-13T10:33:21;3.60;;;2.30;;
52734;SDS011;38631;47.572;10.704;2023-07-13T10:35:47;3.72;;;2.28;;
52734;SDS011;38631;47.572;10.704;2023-07-13T10:38:20;3.75;;;2.50;;
52734;SDS011;38631;47.572;10.704;2023-07-13T10:43:27;2.65;;;1.88;;
52734;SDS011;38631;47.572;10.704;2023-07-13T10:45:57;2.55;;;1.95;;
52734;SDS011;38631;47.572;10.704;2023-07-13T10:48:25;2.58;;;2.00;;
52734;SDS011;38631;47.572;10.704;2023-07-13T10:50:52;5.25;;;2.08;;
52734;SDS011;38631;47.572;10.704;2023-07-13T11:01:08;3.22;;;1.90;;
52734;SDS011;38631;47.572;10.704;2023-07-13T11:03:37;2.42;;;1.90;;
52734;SDS011;38631;47.572;10.704;2023-07-13T11:11:46;3.28;;;2.45;;
52734;SDS011;38631;47.572;10.704;2023-07-13T11:14:09;2.67;;;2.03;;
52734;SDS011;38631;47.572;10.704;2023-07-13T11:16:53;2.97;;;1.95;;
52734;SDS011;38631;47.572;10.704;2023-07-13T11:24:47;2.65;;;2.03;;
52734;SDS011;38631;47.572;10.704;2023-07-13T11:30:09;3.42;;;2.28;;
52734;SDS011;38631;47.572;10.704;2023-07-13T11:32:49;2.67;;;2.13;;
52734;SDS011;38631;47.572;10.704;2023-07-13T11:35:18;2.70;;;1.90;;
52734;SDS011;38631;47.572;10.704;2023-07-13T11:37:51;3.20;;;2.20;;
52734;SDS011;38631;47.572;10.704;2023-07-13T11:40:17;1.67;;;1.55;;
52734;SDS011;38631;47.572;10.704;2023-07-13T11:42:43;2.03;;;1.52;;
52734;SDS011;38631;47.572;10.704;2023-07-13T11:45:19;4.00;;;1.50;;
52734;SDS011;38631;47.572;10.704;2023-07-13T11:47:48;2.65;;;1.55;;
52734;SDS011;38631;47.572;10.704;2023-07-13T11:50:18;2.42;;;1.60;;
52734;SDS011;38631;47.572;10.704;2023-07-13T11:52:45;2.72;;;1.88;;
52734;SDS011;38631;47.572;10.704;2023-07-13T11:55:13;1.85;;;1.38;;
52734;SDS011;38631;47.572;10.704;2023-07-13T11:57:45;1.83;;;1.48;;
52734;SDS011;38631;47.572;10.704;2023-07-13T12:00:16;2.13;;;1.30;;
52734;SDS011;38631;47.572;10.704;2023-07-13T12:02:45;1.60;;;1.30;;
52734;SDS011;38631;47.572;10.704;2023-07-13T12:05:15;2.08;;;1.60;;
52734;SDS011;38631;47.572;10.704;2023-07-13T12:07:48;2.15;;;1.40;;
52734;SDS011;38631;47.572;10.704;2023-07-13T12:10:17;2.50;;;1.23;;
52734;SDS011;38631;47.572;10.704;2023-07-13T12:12:47;2.42;;;1.70;;
52734;SDS011;38631;47.572;10.704;2023-07-13T12:15:14;5.97;;;1.63;;
52734;SDS011;38631;47.572;10.704;2023-07-13T12:17:39;2.25;;;1.60;;
52734;SDS011;38631;47.572;10.704;2023-07-13T12:20:23;2.83;;;1.80;;
52734;SDS011;38631;47.572;10.704;2023-07-13T12:22:51;2.78;;;1.50;;
52734;SDS011;38631;47.572;10.704;2023-07-13T12:25:17;2.35;;;1.65;;
52734;SDS011;38631;47.572;10.704;2023-07-13T12:27:46;3.78;;;1.63;;
52734;SDS011;38631;47.572;10.704;2023-07-13T12:30:23;3.17;;;1.75;;
52734;SDS011;38631;47.572;10.704;2023-07-13T12:33:07;3.97;;;2.35;;
52734;SDS011;38631;47.572;10.704;2023-07-13T12:35:40;3.38;;;2.08;;
52734;SDS011;38631;47.572;10.704;2023-07-13T12:38:17;3.08;;;1.90;;
52734;SDS011;38631;47.572;10.704;2023-07-13T12:40:48;2.90;;;2.10;;
52734;SDS011;38631;47.572;10.704;2023-07-13T12:43:15;2.88;;;2.13;;
52734;SDS011;38631;47.572;10.704;2023-07-13T12:48:37;2.35;;;1.98;;
52734;SDS011;38631;47.572;10.704;2023-07-13T12:51:08;3.95;;;2.10;;
52734;SDS011;38631;47.572;10.704;2023-07-13T12:53:38;2.55;;;1.75;;
52734;SDS011;38631;47.572;10.704;2023-07-13T12:56:08;3.38;;;1.90;;
52734;SDS011;38631;47.572;10.704;2023-07-13T12:58:41;3.40;;;1.65;;
52734;SDS011;38631;47.572;10.704;2023-07-13T13:01:09;4.97;;;2.10;;
52734;SDS011;38631;47.572;10.704;2023-07-13T13:03:44;2.72;;;1.77;;
52734;SDS011;38631;47.572;10.704;2023-07-13T13:08:43;2.65;;;1.83;;
52734;SDS011;38631;47.572;10.704;2023-07-13T13:11:10;3.38;;;1.77;;
52734;SDS011;38631;47.572;10.704;2023-07-13T13:13:35;4.03;;;2.00;;
52734;SDS011;38631;47.572;10.704;2023-07-13T13:16:01;3.10;;;2.00;;
52734;SDS011;38631;47.572;10.704;2023-07-13T13:18:34;2.33;;;2.10;;
52734;SDS011;38631;47.572;10.704;2023-07-13T13:21:01;2.15;;;1.83;;
52734;SDS011;38631;47.572;10.704;2023-07-13T13:23:26;3.05;;;1.80;;
52734;SDS011;38631;47.572;10.704;2023-07-13T13:25:52;2.58;;;2.05;;
52734;SDS011;38631;47.572;10.704;2023-07-13T13:28:18;3.55;;;2.30;;
52734;SDS011;38631;47.572;10.704;2023-07-13T13:30:46;3.55;;;2.90;;
52734;SDS011;38631;47.572;10.704;2023-07-13T13:33:14;3.15;;;2.08;;
52734;SDS011;38631;47.572;10.704;2023-07-13T13:35:41;2.88;;;1.95;;
52734;SDS011;38631;47.572;10.704;2023-07-13T13:40:41;2.78;;;2.15;;
52734;SDS011;38631;47.572;10.704;2023-07-13T13:43:17;4.45;;;2.60;;
52734;SDS011;38631;47.572;10.704;2023-07-13T13:45:44;3.72;;;2.00;;
52734;SDS011;38631;47.572;10.704;2023-07-13T13:48:15;4.43;;;2.50;;
52734;SDS011;38631;47.572;10.704;2023-07-13T13:50:42;3.55;;;2.20;;
52734;SDS011;38631;47.572;10.704;2023-07-13T13:53:11;2.83;;;2.03;;
52734;SDS011;38631;47.572;10.704;2023-07-13T13:55:38;2.97;;;2.45;;
52734;SDS011;38631;47.572;10.704;2023-07-13T13:58:04;6.85;;;2.38;;
52734;SDS011;38631;47.572;10.704;2023-07-13T14:00:29;4.45;;;2.30;;
52734;SDS011;38631;47.572;10.704;2023-07-13T14:02:55;3.33;;;2.20;;
52734;SDS011;38631;47.572;10.704;2023-07-13T14:05:23;2.90;;;2.08;;
52734;SDS011;38631;47.572;10.704;2023-07-13T14:07:51;4.45;;;2.00;;
52734;SDS011;38631;47.572;10.704;2023-07-13T14:10:17;3.72;;;2.00;;
52734;SDS011;38631;47.572;10.704;2023-07-13T14:12:45;3.20;;;2.40;;
52734;SDS011;38631;47.572;10.704;2023-07-13T14:15:15;5.28;;;2.15;;
52734;SDS011;38631;47.572;10.704;2023-07-13T14:17:45;4.28;;;2.40;;
52734;SDS011;38631;47.572;10.704;2023-07-13T14:20:11;3.03;;;2.17;;
52734;SDS011;38631;47.572;10.704;2023-07-13T14:22:37;3.58;;;2.20;;
52734;SDS011;38631;47.572;10.704;2023-07-13T14:25:03;3.40;;;2.45;;
52734;SDS011;38631;47.572;10.704;2023-07-13T14:27:28;4.22;;;2.75;;
52734;SDS011;38631;47.572;10.704;2023-07-13T14:29:54;2.85;;;2.47;;
52734;SDS011;38631;47.572;10.704;2023-07-13T14:32:19;3.97;;;2.38;;
52734;SDS011;38631;47.572;10.704;2023-07-13T14:34:44;4.68;;;2.35;;
52734;SDS011;38631;47.572;10.704;2023-07-13T14:37:13;3.50;;;2.30;;
52734;SDS011;38631;47.572;10.704;2023-07-13T14:39:42;3.42;;;2.35;;
52734;SDS011;38631;47.572;10.704;2023-07-13T14:42:09;3.83;;;2.30;;
52734;SDS011;38631;47.572;10.704;2023-07-13T14:44:35;4.45;;;2.63;;
52734;SDS011;38631;47.572;10.704;2023-07-13T14:47:02;6.13;;;2.88;;
52734;SDS011;38631;47.572;10.704;2023-07-13T14:49:31;3.80;;;2.60;;
52734;SDS011;38631;47.572;10.704;2023-07-13T14:52:05;3.33;;;2.60;;
52734;SDS011;38631;47.572;10.704;2023-07-13T14:54:35;4.32;;;2.10;;
52734;SDS011;38631;47.572;10.704;2023-07-13T14:57:05;3.60;;;2.40;;
52734;SDS011;38631;47.572;10.704;2023-07-13T14:59:34;3.92;;;2.50;;
52734;SDS011;38631;47.572;10.704;2023-07-13T15:02:00;5.40;;;2.75;;
52734;SDS011;38631;47.572;10.704;2023-07-13T15:04:26;4.15;;;2.55;;
52734;SDS011;38631;47.572;10.704;2023-07-13T15:06:59;3.70;;;2.60;;
52734;SDS011;38631;47.572;10.704;2023-07-13T15:09:27;5.50;;;3.00;;
52734;SDS011;38631;47.572;10.704;2023-07-13T15:11:56;2.95;;;2.28;;
52734;SDS011;38631;47.572;10.704;2023-07-13T15:14:22;4.55;;;2.72;;
52734;SDS011;38631;47.572;10.704;2023-07-13T15:16:50;4.43;;;2.88;;
52734;SDS011;38631;47.572;10.704;2023-07-13T15:19:18;2.67;;;2.30;;
52734;SDS011;38631;47.572;10.704;2023-07-13T15:21:46;3.00;;;2.20;;
52734;SDS011;38631;47.572;10.704;2023-07-13T15:24:12;4.00;;;2.00;;